createdAt,value
2023-10-08T00:00:47.935Z,17.36
2023-10-08T00:03:54.835Z,17.38
2023-10-08T00:06:56.644Z,17.44
2023-10-08T00:09:58.076Z,17.39
2023-10-08T00:12:59.804Z,17.32
2023-10-08T00:16:01.269Z,17.28
2023-10-08T00:19:09.940Z,17.21
2023-10-08T00:22:13.949Z,17.14
2023-10-08T00:25:17.237Z,17.11
2023-10-08T00:28:19.085Z,17.05
2023-10-08T00:31:20.703Z,17.01
2023-10-08T00:34:22.234Z,16.96
2023-10-08T00:37:27.952Z,16.89
2023-10-08T00:40:40.930Z,16.83
2023-10-08T00:43:43.222Z,16.78
2023-10-08T00:46:49.176Z,16.74
2023-10-08T00:50:04.117Z,16.67
2023-10-08T00:53:11.531Z,16.63
2023-10-08T00:56:15.070Z,16.60
2023-10-08T00:59:17.441Z,16.54
2023-10-08T01:02:26.764Z,16.49
2023-10-08T01:05:43.558Z,16.45
2023-10-08T01:08:52.738Z,16.37
2023-10-08T01:12:34.787Z,16.33
2023-10-08T01:15:39.089Z,16.29
2023-10-08T01:18:47.809Z,16.26
2023-10-08T01:21:49.341Z,16.21
2023-10-08T01:24:50.790Z,16.17
2023-10-08T01:28:10.579Z,16.12
2023-10-08T01:31:14.075Z,16.07
2023-10-08T01:34:18.613Z,16.03
2023-10-08T01:37:20.194Z,15.99
2023-10-08T01:40:21.655Z,15.94
2023-10-08T01:43:23.715Z,15.81
2023-10-08T01:46:26.679Z,15.74
2023-10-08T01:49:33.382Z,15.76
2023-10-08T01:52:35.795Z,15.74
2023-10-08T01:55:50.471Z,15.71
2023-10-08T01:58:52.132Z,15.71
2023-10-08T02:01:57.188Z,15.73
2023-10-08T02:04:58.796Z,15.73
2023-10-08T02:08:00.342Z,15.70
2023-10-08T02:11:03.598Z,15.65
2023-10-08T02:14:05.917Z,15.61
2023-10-08T02:17:07.772Z,15.56
2023-10-08T02:20:09.894Z,15.44
2023-10-08T02:23:12.966Z,15.35
2023-10-08T02:26:15.941Z,15.35
2023-10-08T02:29:17.504Z,15.27
2023-10-08T02:32:19.862Z,15.28
2023-10-08T02:35:21.424Z,15.42
2023-10-08T02:38:24.015Z,15.48
2023-10-08T02:41:25.863Z,15.44
2023-10-08T02:44:28.390Z,15.44
2023-10-08T02:47:30.122Z,15.46
2023-10-08T02:50:34.044Z,15.54
2023-10-08T02:53:36.417Z,15.47
2023-10-08T02:56:40.109Z,15.37
2023-10-08T02:59:42.329Z,15.25
2023-10-08T03:02:47.413Z,15.11
2023-10-08T03:05:51.734Z,15.01
2023-10-08T03:08:53.317Z,14.91
2023-10-08T03:11:54.822Z,14.80
2023-10-08T03:15:02.826Z,14.84
2023-10-08T03:18:16.739Z,14.75
2023-10-08T03:21:24.769Z,14.74
2023-10-08T03:24:35.982Z,14.83
2023-10-08T03:27:43.072Z,14.92
2023-10-08T03:30:57.297Z,14.93
2023-10-08T03:33:58.841Z,14.99
2023-10-08T03:37:09.604Z,15.01
2023-10-08T03:40:33.287Z,14.97
2023-10-08T03:43:35.914Z,15.00
2023-10-08T03:46:48.209Z,14.93
2023-10-08T03:49:52.305Z,14.89
2023-10-08T03:52:56.242Z,14.87
2023-10-08T03:56:01.933Z,14.87
2023-10-08T03:59:31.055Z,14.83
2023-10-08T04:02:42.688Z,14.89
2023-10-08T04:06:13.104Z,14.97
2023-10-08T04:09:24.915Z,15.05
2023-10-08T04:12:28.152Z,15.05
2023-10-08T04:15:29.898Z,14.95
2023-10-08T04:18:31.682Z,14.88
2023-10-08T04:21:34.938Z,14.81
2023-10-08T04:24:36.721Z,14.70
2023-10-08T04:27:38.450Z,14.60
2023-10-08T04:30:42.363Z,14.40
2023-10-08T04:33:45.479Z,14.25
2023-10-08T04:36:47.273Z,14.13
2023-10-08T04:39:55.576Z,14.07
2023-10-08T04:43:03.027Z,14.05
2023-10-08T04:46:20.901Z,14.08
2023-10-08T04:49:31.708Z,14.09
2023-10-08T04:52:35.522Z,14.05
2023-10-08T04:55:42.812Z,14.01
2023-10-08T04:58:48.589Z,13.94
2023-10-08T05:02:03.736Z,13.93
2023-10-08T05:05:11.152Z,13.88
2023-10-08T05:08:29.368Z,13.87
2023-10-08T05:11:49.310Z,13.77
2023-10-08T05:15:13.733Z,13.72
2023-10-08T05:18:15.295Z,13.74
2023-10-08T05:21:37.122Z,13.74
2023-10-08T05:24:52.229Z,13.75
2023-10-08T05:27:54.665Z,13.74
2023-10-08T05:31:12.403Z,13.68
2023-10-08T05:34:33.906Z,13.63
2023-10-08T05:37:42.920Z,13.52
2023-10-08T05:41:00.658Z,13.49
2023-10-08T05:44:20.472Z,13.53
2023-10-08T05:47:34.130Z,13.50
2023-10-08T05:50:56.033Z,13.38
2023-10-08T05:53:57.570Z,13.28
2023-10-08T05:57:13.643Z,13.19
2023-10-08T06:00:15.619Z,13.17
2023-10-08T06:03:50.007Z,13.28
2023-10-08T06:07:11.499Z,13.35
2023-10-08T06:10:27.806Z,13.39
2023-10-08T06:13:46.385Z,13.43
2023-10-08T06:17:03.174Z,13.47
2023-10-08T06:20:10.763Z,13.49
2023-10-08T06:23:20.254Z,13.54
2023-10-08T06:26:25.207Z,13.53
2023-10-08T06:29:30.565Z,13.59
2023-10-08T06:32:32.261Z,13.63
2023-10-08T06:35:34.726Z,13.66
2023-10-08T06:38:36.369Z,13.70
2023-10-08T06:41:48.580Z,13.70
2023-10-08T06:44:54.310Z,13.70
2023-10-08T06:47:58.344Z,13.82
2023-10-08T06:51:08.758Z,13.93
2023-10-08T06:54:17.806Z,14.08
2023-10-08T06:57:21.462Z,14.16
2023-10-08T07:00:39.286Z,14.26
2023-10-08T07:03:40.880Z,14.33
2023-10-08T07:06:44.110Z,14.39
2023-10-08T07:09:45.862Z,14.47
2023-10-08T07:12:47.733Z,14.56
2023-10-08T07:15:56.219Z,14.59
2023-10-08T07:19:04.007Z,14.60
2023-10-08T07:22:30.146Z,14.62
2023-10-08T07:25:38.171Z,14.71
2023-10-08T07:28:41.134Z,14.78
2023-10-08T07:31:42.961Z,14.79
2023-10-08T07:34:45.490Z,14.80
2023-10-08T07:37:48.250Z,14.85
2023-10-08T07:40:49.757Z,15.00
2023-10-08T07:43:57.313Z,15.13
2023-10-08T07:46:59.053Z,15.29
2023-10-08T07:50:00.566Z,15.47
2023-10-08T07:53:05.184Z,15.59
2023-10-08T07:56:09.636Z,15.75
2023-10-08T07:59:14.539Z,15.97
2023-10-08T08:02:18.905Z,16.26
2023-10-08T08:05:21.795Z,16.65
2023-10-08T08:08:23.909Z,16.85
2023-10-08T08:11:27.403Z,17.02
2023-10-08T08:14:30.013Z,17.20
2023-10-08T08:17:32.235Z,17.38
2023-10-08T08:20:40.167Z,17.51
2023-10-08T08:23:51.638Z,17.51
2023-10-08T08:27:02.949Z,17.52
2023-10-08T08:30:11.486Z,17.62
2023-10-08T08:33:14.297Z,17.65
2023-10-08T08:36:15.790Z,17.73
2023-10-08T08:39:29.672Z,17.91
2023-10-08T08:42:36.083Z,17.88
2023-10-08T08:45:41.568Z,17.93
2023-10-08T08:48:47.968Z,18.09
2023-10-08T08:51:54.525Z,18.23
2023-10-08T08:54:56.140Z,18.40
2023-10-08T08:57:57.819Z,18.46
2023-10-08T09:01:00.924Z,18.55
2023-10-08T09:04:06.265Z,18.62
2023-10-08T09:07:09.079Z,18.68
2023-10-08T09:10:13.385Z,18.57
2023-10-08T09:13:14.833Z,18.63
2023-10-08T09:16:18.281Z,18.72
2023-10-08T09:19:20.101Z,18.62
2023-10-08T09:22:22.662Z,18.61
2023-10-08T09:25:25.248Z,18.58
2023-10-08T09:28:26.697Z,18.62
2023-10-08T09:31:36.456Z,18.71
2023-10-08T09:34:38.093Z,18.67
2023-10-08T09:37:40.416Z,18.67
2023-10-08T09:40:42.779Z,18.70
2023-10-08T09:43:46.158Z,18.76
2023-10-08T09:46:55.290Z,18.86
2023-10-08T09:50:13.668Z,18.96
2023-10-08T09:53:20.547Z,19.01
2023-10-08T09:56:23.920Z,19.14
2023-10-08T09:59:28.642Z,19.13
2023-10-08T10:02:32.607Z,19.22
2023-10-08T10:05:37.185Z,19.27
2023-10-08T10:08:38.690Z,19.37
2023-10-08T10:11:40.384Z,19.54
2023-10-08T10:14:43.954Z,19.52
2023-10-08T10:17:48.346Z,19.61
2023-10-08T10:21:01.611Z,19.69
2023-10-08T10:24:06.874Z,19.91
2023-10-08T10:27:19.034Z,20.06
2023-10-08T10:30:24.161Z,20.14
2023-10-08T10:33:35.138Z,20.29
2023-10-08T10:36:38.156Z,20.27
2023-10-08T10:39:42.975Z,20.39
2023-10-08T10:42:54.311Z,20.47
2023-10-08T10:45:56.588Z,20.56
2023-10-08T10:49:08.550Z,20.66
2023-10-08T10:52:18.932Z,20.66
2023-10-08T10:55:32.450Z,20.62
2023-10-08T10:58:40.697Z,20.72
2023-10-08T11:01:47.990Z,20.82
2023-10-08T11:04:49.974Z,20.79
2023-10-08T11:07:51.591Z,20.77
2023-10-08T11:10:54.548Z,20.83
2023-10-08T11:14:04.252Z,20.92
2023-10-08T11:17:23.524Z,21.10
2023-10-08T11:20:29.075Z,21.16
2023-10-08T11:23:42.605Z,21.18
2023-10-08T11:27:02.643Z,21.18
2023-10-08T11:30:12.036Z,21.22
2023-10-08T11:33:16.569Z,21.26
2023-10-08T11:36:25.915Z,21.36
2023-10-08T11:39:31.595Z,21.51
2023-10-08T11:42:35.090Z,21.73
2023-10-08T11:45:39.784Z,21.88
2023-10-08T11:48:44.736Z,21.98
2023-10-08T11:51:47.273Z,22.04
2023-10-08T11:54:49.949Z,22.26
2023-10-08T11:57:52.182Z,22.56
2023-10-08T12:00:53.878Z,22.63
2023-10-08T12:04:00.729Z,22.34
2023-10-08T12:07:08.435Z,22.44
2023-10-08T12:10:12.328Z,22.71
2023-10-08T12:13:13.968Z,22.70
2023-10-08T12:16:24.775Z,22.66
2023-10-08T12:19:27.319Z,22.74
2023-10-08T12:22:30.768Z,22.79
2023-10-08T12:25:33.629Z,22.85
2023-10-08T12:28:35.326Z,22.89
2023-10-08T12:31:36.834Z,22.94
2023-10-08T12:34:38.995Z,23.06
2023-10-08T12:37:40.710Z,23.28
2023-10-08T12:40:48.730Z,23.19
2023-10-08T12:43:53.649Z,23.20
2023-10-08T12:46:57.239Z,23.30
2023-10-08T12:49:58.931Z,23.33
2023-10-08T12:53:05.123Z,23.43
2023-10-08T12:56:15.617Z,23.65
2023-10-08T12:59:25.048Z,23.54
2023-10-08T13:02:30.175Z,23.63
2023-10-08T13:05:32.102Z,23.51
2023-10-08T13:08:35.118Z,23.73
2023-10-08T13:11:40.100Z,23.84
2023-10-08T13:14:42.219Z,24.03
2023-10-08T13:17:46.514Z,23.98
2023-10-08T13:20:49.217Z,24.16
2023-10-08T13:23:51.024Z,24.23
2023-10-08T13:26:53.097Z,24.16
2023-10-08T13:29:54.916Z,24.05
2023-10-08T13:32:56.582Z,24.10
2023-10-08T13:36:15.319Z,24.25
2023-10-08T13:39:20.460Z,24.44
2023-10-08T13:42:22.580Z,24.66
2023-10-08T13:45:27.861Z,24.82
2023-10-08T13:48:29.726Z,24.74
2023-10-08T13:51:31.798Z,24.83
2023-10-08T13:54:37.311Z,24.76
2023-10-08T13:57:39.149Z,24.79
2023-10-08T14:00:40.820Z,24.93
2023-10-08T14:03:42.744Z,25.12
2023-10-08T14:06:49.170Z,25.06
2023-10-08T14:09:51.765Z,25.04
2023-10-08T14:12:54.654Z,25.15
2023-10-08T14:15:57.192Z,25.26
2023-10-08T14:19:00.868Z,25.26
2023-10-08T14:22:09.320Z,25.25
2023-10-08T14:25:14.933Z,25.33
2023-10-08T14:28:22.968Z,25.45
2023-10-08T14:31:25.837Z,25.36
2023-10-08T14:34:46.028Z,25.13
2023-10-08T14:38:06.063Z,24.75
2023-10-08T14:41:26.201Z,24.55
2023-10-08T14:44:28.255Z,24.41
2023-10-08T14:47:30.152Z,24.31
2023-10-08T14:50:34.872Z,24.23
2023-10-08T14:53:39.570Z,24.15
2023-10-08T14:56:41.088Z,24.13
2023-10-08T14:59:42.919Z,24.22
2023-10-08T15:02:45.533Z,24.29
2023-10-08T15:05:47.816Z,24.34
2023-10-08T15:08:50.982Z,24.35
2023-10-08T15:11:53.523Z,24.30
2023-10-08T15:14:55.034Z,24.25
2023-10-08T15:17:56.973Z,24.20
2023-10-08T15:20:59.230Z,24.14
2023-10-08T15:24:11.381Z,24.14
2023-10-08T15:27:13.023Z,24.08
2023-10-08T15:30:16.939Z,24.08
2023-10-08T15:33:18.743Z,24.07
2023-10-08T15:36:20.441Z,23.96
2023-10-08T15:39:25.253Z,23.91
2023-10-08T15:42:26.764Z,23.86
2023-10-08T15:45:29.324Z,23.79
2023-10-08T15:48:31.054Z,23.74
2023-10-08T15:51:32.769Z,23.70
2023-10-08T15:54:34.290Z,23.65
2023-10-08T15:57:35.886Z,23.60
2023-10-08T16:00:37.487Z,23.50
2023-10-08T16:03:39.689Z,23.38
2023-10-08T16:06:41.672Z,23.27
2023-10-08T16:09:43.235Z,23.21
2023-10-08T16:12:44.718Z,23.12
2023-10-08T16:15:46.295Z,23.01
2023-10-08T16:18:48.568Z,22.87
2023-10-08T16:21:50.244Z,22.76
2023-10-08T16:24:52.642Z,22.66
2023-10-08T16:27:54.400Z,22.56
2023-10-08T16:30:55.974Z,22.48
2023-10-08T16:33:57.567Z,22.38
2023-10-08T16:36:59.572Z,22.29
2023-10-08T16:40:01.774Z,22.19
2023-10-08T16:43:03.261Z,22.11
2023-10-08T16:46:06.617Z,21.99
2023-10-08T16:49:09.336Z,21.87
2023-10-08T16:52:11.816Z,21.74
2023-10-08T16:55:14.912Z,21.61
2023-10-08T16:58:16.998Z,21.43
2023-10-08T17:01:18.837Z,21.31
2023-10-08T17:04:20.390Z,21.23
2023-10-08T17:07:23.919Z,21.14
2023-10-08T17:10:30.440Z,21.02
2023-10-08T17:13:32.436Z,20.92
2023-10-08T17:16:33.902Z,20.86
2023-10-08T17:19:36.021Z,20.86
2023-10-08T17:22:38.439Z,20.87
2023-10-08T17:25:40.295Z,20.85
2023-10-08T17:28:42.704Z,20.79
2023-10-08T17:31:44.414Z,20.69
2023-10-08T17:34:47.330Z,20.65
2023-10-08T17:37:49.161Z,20.53
2023-10-08T17:40:50.635Z,20.50
2023-10-08T17:43:52.276Z,20.46
2023-10-08T17:46:53.961Z,20.45
2023-10-08T17:49:56.886Z,20.40
2023-10-08T17:52:58.361Z,20.37
2023-10-08T17:56:00.084Z,20.33
2023-10-08T17:59:01.557Z,20.25
2023-10-08T18:02:03.117Z,20.14
2023-10-08T18:05:06.107Z,20.06
2023-10-08T18:08:07.697Z,20.01
2023-10-08T18:11:09.829Z,20.02
2023-10-08T18:14:12.601Z,20.03
2023-10-08T18:17:14.724Z,19.96
2023-10-08T18:20:20.625Z,19.91
2023-10-08T18:23:24.549Z,19.84
2023-10-08T18:26:27.502Z,19.82
2023-10-08T18:29:29.041Z,19.77
2023-10-08T18:32:31.333Z,19.73
2023-10-08T18:35:33.614Z,19.69
2023-10-08T18:38:35.845Z,19.66
2023-10-08T18:41:37.431Z,19.62
2023-10-08T18:44:38.902Z,19.61
2023-10-08T18:47:41.936Z,19.58
2023-10-08T18:50:45.842Z,19.51
2023-10-08T18:53:50.069Z,19.48
2023-10-08T18:56:51.641Z,19.44
2023-10-08T18:59:53.453Z,19.42
2023-10-08T19:02:56.467Z,19.35
2023-10-08T19:05:58.082Z,19.23
2023-10-08T19:09:02.581Z,19.15
2023-10-08T19:12:07.258Z,19.13
2023-10-08T19:15:14.469Z,19.10
2023-10-08T19:18:16.371Z,19.06
2023-10-08T19:21:19.240Z,19.00
2023-10-08T19:24:20.867Z,18.99
2023-10-08T19:27:25.072Z,18.95
2023-10-08T19:30:26.861Z,18.89
2023-10-08T19:33:28.860Z,18.88
2023-10-08T19:36:31.779Z,18.85
2023-10-08T19:39:33.289Z,18.80
2023-10-08T19:42:39.031Z,18.72
2023-10-08T19:45:40.681Z,18.65
2023-10-08T19:48:42.582Z,18.65
2023-10-08T19:51:44.198Z,18.61
2023-10-08T19:54:45.877Z,18.54
2023-10-08T19:57:47.354Z,18.47
2023-10-08T20:00:51.093Z,18.43
2023-10-08T20:03:53.035Z,18.38
2023-10-08T20:06:54.672Z,18.36
2023-10-08T20:09:56.340Z,18.32
2023-10-08T20:12:58.342Z,18.26
2023-10-08T20:16:00.261Z,18.28
2023-10-08T20:19:06.188Z,18.22
2023-10-08T20:22:07.675Z,18.19
2023-10-08T20:25:15.832Z,18.16
2023-10-08T20:28:18.395Z,18.14
2023-10-08T20:31:22.170Z,18.03
2023-10-08T20:34:24.443Z,17.98
2023-10-08T20:37:28.413Z,17.94
2023-10-08T20:40:30.956Z,17.89
2023-10-08T20:43:33.699Z,17.87
2023-10-08T20:46:36.462Z,17.81
2023-10-08T20:49:38.587Z,17.73
2023-10-08T20:52:40.932Z,17.72
2023-10-08T20:55:43.007Z,17.70
2023-10-08T20:58:45.128Z,17.61
2023-10-08T21:01:48.082Z,17.58
2023-10-08T21:04:50.593Z,17.54
2023-10-08T21:07:52.420Z,17.51
2023-10-08T21:13:59.745Z,17.41
2023-10-08T21:17:02.517Z,17.36
2023-10-08T21:20:16.352Z,17.20
2023-10-08T21:23:17.990Z,17.06
2023-10-08T21:26:21.312Z,16.94
2023-10-08T21:29:22.878Z,16.91
2023-10-08T21:32:24.439Z,16.86
2023-10-08T21:35:26.404Z,16.81
2023-10-08T21:38:29.723Z,16.73
2023-10-08T21:41:32.349Z,16.67
2023-10-08T21:44:33.781Z,16.70
2023-10-08T21:47:36.736Z,16.70
2023-10-08T21:50:38.419Z,16.66
2023-10-08T21:53:39.935Z,16.64
2023-10-08T21:56:41.507Z,16.61
2023-10-08T21:59:42.979Z,16.54
2023-10-08T22:02:46.047Z,16.47
2023-10-08T22:05:47.720Z,16.39
2023-10-08T22:08:50.432Z,16.35
2023-10-08T22:11:52.140Z,16.33
2023-10-08T22:14:56.425Z,16.37
2023-10-08T22:18:03.628Z,16.33
2023-10-08T22:21:11.567Z,16.20
2023-10-08T22:24:13.536Z,16.10
2023-10-08T22:27:34.479Z,16.05
2023-10-08T22:30:36.830Z,16.07
2023-10-08T22:33:46.949Z,16.10
2023-10-08T22:36:48.825Z,16.12
2023-10-08T22:39:52.743Z,16.15
2023-10-08T22:42:54.994Z,16.10
2023-10-08T22:45:58.652Z,16.05
2023-10-08T22:49:17.642Z,16.09
2023-10-08T22:52:22.538Z,16.11
2023-10-08T22:55:24.605Z,16.13
2023-10-08T22:58:26.035Z,16.08
2023-10-08T23:01:28.491Z,16.03
2023-10-08T23:04:30.633Z,16.06
2023-10-08T23:07:32.213Z,16.08
2023-10-08T23:10:33.653Z,16.08
2023-10-08T23:13:37.073Z,16.01
2023-10-08T23:16:41.087Z,15.98
2023-10-08T23:19:42.556Z,15.98
2023-10-08T23:22:45.083Z,15.99
2023-10-08T23:25:47.532Z,15.90
2023-10-08T23:28:49.375Z,15.85
2023-10-08T23:31:50.902Z,15.82
2023-10-08T23:35:00.316Z,15.82
2023-10-08T23:38:08.027Z,15.84
2023-10-08T23:41:16.855Z,15.82
2023-10-08T23:44:30.891Z,15.81
2023-10-08T23:47:32.411Z,15.76
2023-10-08T23:50:35.220Z,15.70
2023-10-08T23:53:48.060Z,15.65
2023-10-08T23:56:49.930Z,15.62
2023-10-08T23:59:57.608Z,15.65
